Private Wetterstation Wechselburg
Wetterdaten: Dienstag, 23.03.2021
Datum Zeit Temp. +2m Bodentemp. Temp.+5cm Temp. Wind Windchill X Diff Temp. Feuchte +2m Feuchte +5cm Luftdruck Regen Wind Richtung Richtung Sonnenschein Taupunkt Windchill Windben
23.03.2021 00:00 1,9 C 5,2 C 1,6 C 2,2 C 2,2 C 0,3 C 85 % 88 % 1025,2 hPa 0,0 l/m 0,0 km/h (0 Bft) SW 225 0 min -0,3 C 2,2 C 0,0 km/h (0 Bft)
23.03.2021 00:05 2,0 C 5,2 C 1,8 C 2,3 C 2,3 C 0,3 C 85 % 88 % 1025,2 hPa 0,0 l/m 0,2 km/h (0 Bft) S 180 0 min -0,3 C 2,3 C 0,0 km/h (0 Bft)
23.03.2021 00:10 2,4 C 5,2 C 2,0 C 2,7 C 2,7 C 0,3 C 85 % 88 % 1025,1 hPa 0,0 l/m 0,0 km/h (0 Bft) S-SW 202 0 min 0,1 C 2,7 C 0,0 km/h (0 Bft)
23.03.2021 00:15 2,5 C 5,2 C 2,1 C 2,9 C 2,9 C 0,4 C 85 % 88 % 1025,1 hPa 0,0 l/m 0,0 km/h (0 Bft) W-NW 292 0 min 0,2 C 2,9 C 0,0 km/h (0 Bft)
23.03.2021 00:20 2,8 C 5,2 C 2,2 C 3,0 C 3,0 C 0,2 C 84 % 88 % 1025,1 hPa 0,0 l/m 0,0 km/h (0 Bft) O 90 0 min 0,4 C 3,0 C 0,0 km/h (0 Bft)
23.03.2021 00:25 2,8 C 5,2 C 2,3 C 3,0 C 3,0 C 0,2 C 84 % 88 % 1025,1 hPa 0,0 l/m 0,0 km/h (0 Bft) W-SW 247 0 min 0,4 C 3,0 C 0,0 km/h (0 Bft)
23.03.2021 00:30 2,9 C 5,2 C 2,3 C 3,0 C 3,0 C 0,1 C 84 % 88 % 1025,1 hPa 0,0 l/m 0,0 km/h (0 Bft) W-SW 247 0 min 0,5 C 3,0 C 0,0 km/h (0 Bft)
23.03.2021 00:35 3,1 C 5,2 C 2,4 C 3,1 C 3,1 C 0,0 C 84 % 88 % 1025,1 hPa 0,0 l/m 0,0 km/h (0 Bft) W 270 0 min 0,7 C 3,1 C 0,0 km/h (0 Bft)
23.03.2021 00:40 3,1 C 5,2 C 2,5 C 3,2 C 3,2 C 0,1 C 84 % 88 % 1025,1 hPa 0,0 l/m 0,0 km/h (0 Bft) W 270 0 min 0,7 C 3,2 C 0,0 km/h (0 Bft)
23.03.2021 00:45 3,2 C 5,2 C 2,6 C 3,2 C 3,2 C 0,0 C 84 % 88 % 1025,1 hPa 0,0 l/m 0,0 km/h (0 Bft) W 270 0 min 0,8 C 3,2 C 0,0 km/h (0 Bft)
23.03.2021 00:50 3,3 C 5,2 C 2,7 C 3,3 C 3,3 C 0,0 C 84 % 88 % 1024,9 hPa 0,0 l/m 0,0 km/h (0 Bft) SW 225 0 min 0,9 C 3,3 C 0,0 km/h (0 Bft)
23.03.2021 00:55 3,4 C 5,2 C 2,7 C 3,4 C 3,4 C 0,0 C 83 % 87 % 1024,9 hPa 0,0 l/m 0,0 km/h (0 Bft) W-NW 292 0 min 0,8 C 3,4 C 0,0 km/h (0 Bft)
23.03.2021 01:00 3,5 C 5,2 C 2,7 C 3,5 C 3,4 C 0,0 C 84 % 87 % 1024,9 hPa 0,0 l/m 0,0 km/h (0 Bft) SW 225 0 min 1,1 C 3,4 C 0,0 km/h (0 Bft)
23.03.2021 01:05 3,5 C 5,2 C 2,7 C 3,5 C 3,4 C 0,0 C 84 % 87 % 1024,9 hPa 0,0 l/m 0,0 km/h (0 Bft) SW 225 0 min 1,1 C 3,4 C 0,0 km/h (0 Bft)
23.03.2021 01:10 3,5 C 5,2 C 2,8 C 3,5 C 3,4 C 0,0 C 83 % 87 % 1024,9 hPa 0,0 l/m 0,0 km/h (0 Bft) W 270 0 min 0,9 C 3,4 C 1,6 km/h (1 Bft)
23.03.2021 01:15 3,5 C 5,2 C 2,8 C 3,5 C 3,4 C 0,0 C 83 % 87 % 1024,9 hPa 0,0 l/m 0,0 km/h (0 Bft) SW 225 0 min 0,9 C 3,4 C 0,0 km/h (0 Bft)
23.03.2021 01:20 3,6 C 5,3 C 2,8 C 3,5 C 3,4 C 0,0 C 83 % 87 % 1024,9 hPa 0,0 l/m 0,0 km/h (0 Bft) S 180 0 min 1,0 C 3,4 C 0,0 km/h (0 Bft)
23.03.2021 01:25 3,6 C 5,3 C 2,8 C 3,5 C 3,4 C 0,0 C 83 % 87 % 1024,9 hPa 0,0 l/m 0,0 km/h (0 Bft) SW 225 0 min 1,0 C 3,4 C 0,0 km/h (0 Bft)
23.03.2021 01:30 3,6 C 5,3 C 2,8 C 3,5 C 3,4 C 0,0 C 83 % 87 % 1024,9 hPa 0,0 l/m 0,0 km/h (0 Bft) SW 225 0 min 1,0 C 3,4 C 0,0 km/h (0 Bft)
23.03.2021 01:35 3,6 C 5,3 C 2,8 C 3,5 C 3,4 C 0,0 C 83 % 87 % 1024,9 hPa 0,0 l/m 0,0 km/h (0 Bft) W 270 0 min 1,0 C 3,4 C 1,8 km/h (1 Bft)
23.03.2021 01:40 3,6 C 5,3 C 2,9 C 3,5 C 3,4 C 0,0 C 83 % 87 % 1024,9 hPa 0,0 l/m 0,0 km/h (0 Bft) SW 225 0 min 1,0 C 3,4 C 1,9 km/h (1 Bft)
23.03.2021 01:45 3,6 C 5,3 C 2,9 C 3,5 C 3,4 C 0,0 C 83 % 87 % 1024,9 hPa 0,0 l/m 0,2 km/h (0 Bft) W 270 0 min 1,0 C 3,4 C 0,0 km/h (0 Bft)
23.03.2021 01:50 3,7 C 5,3 C 2,9 C 3,6 C 3,4 C 0,0 C 83 % 87 % 1025,1 hPa 0,0 l/m 0,2 km/h (0 Bft) SW 225 0 min 1,1 C 3,4 C 3,5 km/h (1 Bft)
23.03.2021 01:55 3,7 C 5,3 C 3,0 C 3,6 C 3,5 C 0,0 C 83 % 87 % 1025,1 hPa 0,0 l/m 0,3 km/h (0 Bft) W-SW 247 0 min 1,1 C 3,5 C 2,7 km/h (1 Bft)
23.03.2021 02:00 3,7 C 5,3 C 3,0 C 3,6 C 3,5 C 0,0 C 83 % 87 % 1025,1 hPa 0,0 l/m 0,3 km/h (0 Bft) SW 225 0 min 1,1 C 3,5 C 0,0 km/h (0 Bft)
23.03.2021 02:05 3,7 C 5,3 C 3,0 C 3,6 C 3,5 C 0,0 C 83 % 87 % 1025,1 hPa 0,0 l/m 0,2 km/h (0 Bft) SW 225 0 min 1,1 C 3,5 C 0,0 km/h (0 Bft)
23.03.2021 02:10 3,7 C 5,3 C 3,0 C 3,6 C 3,5 C 0,0 C 83 % 87 % 1025,2 hPa 0,0 l/m 0,0 km/h (0 Bft) SW 225 0 min 1,1 C 3,5 C 3,7 km/h (1 Bft)
23.03.2021 02:15 3,7 C 5,3 C 3,0 C 3,6 C 3,5 C 0,0 C 83 % 87 % 1025,2 hPa 0,0 l/m 0,0 km/h (0 Bft) W 270 0 min 1,1 C 3,5 C 0,0 km/h (0 Bft)
23.03.2021 02:20 3,8 C 5,3 C 3,1 C 3,7 C 3,6 C 0,0 C 83 % 87 % 1025,2 hPa 0,0 l/m 0,0 km/h (0 Bft) SW 225 0 min 1,2 C 3,6 C 0,0 km/h (0 Bft)
23.03.2021 02:25 3,7 C 5,3 C 3,0 C 3,7 C 3,6 C 0,0 C 83 % 87 % 1025,2 hPa 0,0 l/m 0,0 km/h (0 Bft) SW 225 0 min 1,1 C 3,6 C 0,0 km/h (0 Bft)
23.03.2021 02:30 3,8 C 5,3 C 3,1 C 3,7 C 3,6 C 0,0 C 83 % 87 % 1025,1 hPa 0,0 l/m 0,0 km/h (0 Bft) S-SW 202 0 min 1,2 C 3,6 C 0,0 km/h (0 Bft)
23.03.2021 02:35 3,8 C 5,3 C 3,0 C 3,7 C 3,6 C 0,0 C 83 % 87 % 1025,1 hPa 0,0 l/m 0,0 km/h (0 Bft) W 270 0 min 1,2 C 3,6 C 0,0 km/h (0 Bft)
23.03.2021 02:40 3,9 C 5,3 C 3,0 C 3,8 C 3,6 C 0,0 C 83 % 87 % 1025,1 hPa 0,0 l/m 0,0 km/h (0 Bft) W-SW 247 0 min 1,3 C 3,6 C 0,0 km/h (0 Bft)
23.03.2021 02:45 3,9 C 5,3 C 3,0 C 3,8 C 3,6 C 0,0 C 83 % 87 % 1025,1 hPa 0,0 l/m 0,0 km/h (0 Bft) SW 225 0 min 1,3 C 3,6 C 0,0 km/h (0 Bft)
23.03.2021 02:50 3,8 C 5,3 C 2,9 C 3,7 C 3,6 C 0,0 C 83 % 87 % 1025,3 hPa 0,0 l/m 0,0 km/h (0 Bft) W 270 0 min 1,2 C 3,6 C 0,0 km/h (0 Bft)
23.03.2021 02:55 3,8 C 5,3 C 3,0 C 3,7 C 3,6 C 0,0 C 83 % 87 % 1025,3 hPa 0,0 l/m 0,2 km/h (0 Bft) SW 225 0 min 1,2 C 3,6 C 2,6 km/h (1 Bft)
23.03.2021 03:00 3,9 C 5,3 C 3,1 C 3,8 C 3,6 C 0,0 C 83 % 87 % 1025,3 hPa 0,0 l/m 0,6 km/h (0 Bft) S-SW 202 0 min 1,3 C 3,6 C 4,5 km/h (1 Bft)
23.03.2021 03:05 3,9 C 5,3 C 3,1 C 3,8 C 3,7 C 0,0 C 83 % 87 % 1025,3 hPa 0,0 l/m 1,4 km/h (1 Bft) S 180 0 min 1,3 C 3,7 C 3,2 km/h (1 Bft)
23.03.2021 03:10 3,8 C 5,3 C 3,1 C 3,8 C 3,7 C 0,0 C 83 % 87 % 1025,1 hPa 0,0 l/m 1,3 km/h (1 Bft) S 180 0 min 1,2 C 3,7 C 1,9 km/h (1 Bft)
23.03.2021 03:15 3,9 C 5,3 C 3,1 C 3,8 C 3,7 C 0,0 C 83 % 87 % 1025,1 hPa 0,0 l/m 0,5 km/h (0 Bft) S 180 0 min 1,3 C 3,7 C 0,0 km/h (0 Bft)
23.03.2021 03:20 3,9 C 5,3 C 3,1 C 3,8 C 3,6 C 0,0 C 83 % 87 % 1025,1 hPa 0,0 l/m 0,8 km/h (0 Bft) S-SW 202 0 min 1,3 C 3,6 C 0,0 km/h (0 Bft)
23.03.2021 03:25 3,8 C 5,2 C 3,1 C 3,7 C 3,6 C 0,0 C 83 % 87 % 1025,1 hPa 0,0 l/m 0,8 km/h (0 Bft) S-SW 202 0 min 1,2 C 3,6 C 0,0 km/h (0 Bft)
23.03.2021 03:30 3,7 C 5,3 C 3,1 C 3,7 C 3,6 C 0,0 C 82 % 87 % 1025,0 hPa 0,0 l/m 0,5 km/h (0 Bft) S-SW 202 0 min 0,9 C 3,6 C 0,0 km/h (0 Bft)
23.03.2021 03:35 3,7 C 5,2 C 3,1 C 3,6 C 3,5 C 0,0 C 82 % 87 % 1025,0 hPa 0,0 l/m 0,3 km/h (0 Bft) S-SW 202 0 min 0,9 C 3,5 C 0,0 km/h (0 Bft)
23.03.2021 03:40 3,7 C 5,2 C 3,1 C 3,6 C 3,5 C 0,0 C 82 % 87 % 1025,0 hPa 0,0 l/m 0,3 km/h (0 Bft) S-SW 202 0 min 0,9 C 3,5 C 1,6 km/h (1 Bft)
23.03.2021 03:45 3,7 C 5,3 C 3,1 C 3,6 C 3,5 C 0,0 C 82 % 87 % 1025,0 hPa 0,0 l/m 0,3 km/h (0 Bft) S-SW 202 0 min 0,9 C 3,5 C 0,0 km/h (0 Bft)
23.03.2021 03:50 3,6 C 5,3 C 3,0 C 3,6 C 3,5 C 0,0 C 82 % 87 % 1025,3 hPa 0,0 l/m 0,2 km/h (0 Bft) S 180 0 min 0,8 C 3,5 C 0,0 km/h (0 Bft)
23.03.2021 03:55 3,7 C 5,2 C 3,0 C 3,6 C 3,4 C 0,0 C 82 % 87 % 1025,3 hPa 0,0 l/m 0,0 km/h (0 Bft) S 180 0 min 0,9 C 3,4 C 0,0 km/h (0 Bft)
23.03.2021 04:00 3,6 C 5,2 C 3,0 C 3,5 C 3,4 C 0,0 C 82 % 87 % 1025,3 hPa 0,0 l/m 0,0 km/h (0 Bft) S 180 0 min 0,8 C 3,4 C 0,0 km/h (0 Bft)
23.03.2021 04:05 3,6 C 5,2 C 3,0 C 3,5 C 3,4 C 0,0 C 82 % 87 % 1025,3 hPa 0,0 l/m 0,0 km/h (0 Bft) S-SW 202 0 min 0,8 C 3,4 C 2,4 km/h (1 Bft)
23.03.2021 04:10 3,6 C 5,2 C 3,0 C 3,6 C 3,5 C 0,0 C 82 % 87 % 1025,4 hPa 0,0 l/m 0,5 km/h (0 Bft) SW 225 0 min 0,8 C 3,5 C 2,6 km/h (1 Bft)
23.03.2021 04:15 3,7 C 5,2 C 3,0 C 3,6 C 3,5 C 0,0 C 82 % 87 % 1025,4 hPa 0,0 l/m 0,6 km/h (0 Bft) S 180 0 min 0,9 C 3,5 C 0,0 km/h (0 Bft)
23.03.2021 04:20 3,7 C 5,2 C 3,1 C 3,7 C 3,6 C 0,0 C 82 % 87 % 1025,4 hPa 0,0 l/m 0,2 km/h (0 Bft) S 180 0 min 0,9 C 3,6 C 0,0 km/h (0 Bft)
23.03.2021 04:25 3,7 C 5,3 C 3,1 C 3,7 C 3,6 C 0,0 C 82 % 87 % 1025,4 hPa 0,0 l/m 0,2 km/h (0 Bft) S-SW 202 0 min 0,9 C 3,6 C 0,0 km/h (0 Bft)
23.03.2021 04:30 3,7 C 5,3 C 3,1 C 3,7 C 3,6 C 0,0 C 82 % 87 % 1025,0 hPa 0,0 l/m 0,2 km/h (0 Bft) W-SW 247 0 min 0,9 C 3,6 C 1,8 km/h (1 Bft)
23.03.2021 04:35 3,7 C 5,3 C 3,1 C 3,7 C 3,6 C 0,0 C 82 % 87 % 1025,0 hPa 0,0 l/m 0,2 km/h (0 Bft) SW 225 0 min 0,9 C 3,6 C 0,0 km/h (0 Bft)
23.03.2021 04:40 3,7 C 5,3 C 3,1 C 3,7 C 3,6 C 0,0 C 82 % 87 % 1025,0 hPa 0,0 l/m 0,2 km/h (0 Bft) SW 225 0 min 0,9 C 3,6 C 0,0 km/h (0 Bft)
23.03.2021 04:45 3,7 C 5,3 C 3,1 C 3,7 C 3,6 C 0,0 C 82 % 87 % 1025,0 hPa 0,0 l/m 0,3 km/h (0 Bft) S 180 0 min 0,9 C 3,6 C 3,7 km/h (1 Bft)
23.03.2021 04:50 3,7 C 5,3 C 3,1 C 3,7 C 3,6 C 0,0 C 82 % 87 % 1025,1 hPa 0,0 l/m 0,5 km/h (0 Bft) SW 225 0 min 0,9 C 3,6 C 0,0 km/h (0 Bft)
23.03.2021 04:55 3,7 C 5,3 C 3,1 C 3,7 C 3,6 C 0,0 C 82 % 87 % 1025,1 hPa 0,0 l/m 0,6 km/h (0 Bft) SW 225 0 min 0,9 C 3,6 C 0,0 km/h (0 Bft)
23.03.2021 05:00 3,7 C 5,3 C 3,1 C 3,6 C 3,5 C 0,0 C 83 % 87 % 1025,1 hPa 0,0 l/m 1,8 km/h (1 Bft) W-SW 247 0 min 1,1 C 3,5 C 5,8 km/h (2 Bft)
23.03.2021 05:05 3,6 C 5,4 C 3,1 C 3,5 C 3,4 C 0,0 C 83 % 87 % 1025,1 hPa 0,0 l/m 1,9 km/h (1 Bft) W-SW 247 0 min 1,0 C 3,4 C 3,9 km/h (1 Bft)
23.03.2021 05:10 3,6 C 5,5 C 3,0 C 3,5 C 3,2 C 0,0 C 83 % 88 % 1025,6 hPa 0,0 l/m 1,3 km/h (1 Bft) W-SW 247 0 min 1,0 C 3,2 C 1,8 km/h (1 Bft)
23.03.2021 05:15 3,6 C 5,6 C 3,0 C 3,4 C 3,1 C 0,0 C 84 % 88 % 1025,6 hPa 0,0 l/m 1,0 km/h (0 Bft) SW 225 0 min 1,2 C 3,1 C 1,8 km/h (1 Bft)
23.03.2021 05:20 3,5 C 5,6 C 3,0 C 3,3 C 3,0 C 0,0 C 84 % 89 % 1025,6 hPa 0,0 l/m 0,5 km/h (0 Bft) SW 225 0 min 1,1 C 3,0 C 2,1 km/h (1 Bft)
23.03.2021 05:25 3,5 C 5,6 C 2,9 C 3,3 C 3,0 C 0,0 C 85 % 89 % 1025,6 hPa 0,0 l/m 0,5 km/h (0 Bft) W 270 0 min 1,2 C 3,0 C 0,0 km/h (0 Bft)
23.03.2021 05:30 3,5 C 5,6 C 2,9 C 3,3 C 3,0 C 0,0 C 85 % 89 % 1025,6 hPa 0,0 l/m 0,6 km/h (0 Bft) SW 225 0 min 1,2 C 3,0 C 0,0 km/h (0 Bft)
23.03.2021 05:35 3,5 C 5,6 C 2,9 C 3,3 C 3,0 C 0,0 C 85 % 89 % 1025,6 hPa 0,0 l/m 0,5 km/h (0 Bft) S-SW 202 0 min 1,2 C 3,0 C 0,0 km/h (0 Bft)
23.03.2021 05:40 3,5 C 5,6 C 2,8 C 3,3 C 2,9 C 0,0 C 85 % 89 % 1025,6 hPa 0,0 l/m 0,2 km/h (0 Bft) W 270 0 min 1,2 C 2,9 C 0,0 km/h (0 Bft)
23.03.2021 05:45 3,3 C 5,6 C 2,8 C 3,2 C 2,9 C 0,0 C 85 % 89 % 1025,6 hPa 0,0 l/m 0,0 km/h (0 Bft) SW 225 0 min 1,0 C 2,9 C 0,0 km/h (0 Bft)
23.03.2021 05:50 3,3 C 5,6 C 2,8 C 3,1 C 2,8 C 0,0 C 86 % 90 % 1025,9 hPa 0,0 l/m 0,0 km/h (0 Bft) SW 225 0 min 1,2 C 2,8 C 0,0 km/h (0 Bft)
23.03.2021 05:55 3,3 C 5,6 C 2,9 C 3,1 C 2,8 C 0,0 C 86 % 90 % 1025,9 hPa 0,0 l/m 0,0 km/h (0 Bft) SW 225 0 min 1,2 C 2,8 C 0,0 km/h (0 Bft)
23.03.2021 06:00 3,2 C 5,6 C 2,9 C 3,0 C 2,7 C 0,0 C 86 % 90 % 1025,9 hPa 0,0 l/m 0,0 km/h (0 Bft) SW 225 0 min 1,1 C 2,7 C 0,0 km/h (0 Bft)
23.03.2021 06:05 3,2 C 5,6 C 2,8 C 3,0 C 2,7 C 0,0 C 86 % 90 % 1025,9 hPa 0,0 l/m 0,0 km/h (0 Bft) SW 225 0 min 1,1 C 2,7 C 1,6 km/h (1 Bft)
23.03.2021 06:10 3,3 C 5,6 C 2,7 C 3,1 C 2,7 C 0,0 C 86 % 90 % 1025,5 hPa 0,0 l/m 0,0 km/h (0 Bft) SW 225 0 min 1,2 C 2,7 C 0,0 km/h (0 Bft)
23.03.2021 06:15 3,3 C 5,6 C 2,7 C 3,1 C 2,7 C 0,0 C 86 % 90 % 1025,5 hPa 0,0 l/m 0,0 km/h (0 Bft) W-SW 247 0 min 1,2 C 2,7 C 0,0 km/h (0 Bft)
23.03.2021 06:20 3,2 C 5,6 C 2,7 C 3,0 C 2,7 C 0,0 C 87 % 90 % 1025,5 hPa 0,0 l/m 0,0 km/h (0 Bft) SW 225 0 min 1,2 C 2,7 C 0,0 km/h (0 Bft)
23.03.2021 06:25 3,2 C 5,6 C 2,7 C 3,0 C 2,7 C 0,0 C 87 % 90 % 1025,5 hPa 0,0 l/m 0,0 km/h (0 Bft) SW 225 0 min 1,2 C 2,7 C 0,0 km/h (0 Bft)
23.03.2021 06:30 3,1 C 5,6 C 2,7 C 2,9 C 2,6 C 0,0 C 87 % 90 % 1025,8 hPa 0,0 l/m 0,0 km/h (0 Bft) SW 225 0 min 1,2 C 2,6 C 0,0 km/h (0 Bft)
23.03.2021 06:35 3,1 C 5,6 C 2,7 C 3,0 C 2,7 C 0,0 C 87 % 90 % 1025,8 hPa 0,0 l/m 0,0 km/h (0 Bft) W-SW 247 0 min 1,2 C 2,7 C 0,0 km/h (0 Bft)
23.03.2021 06:40 3,1 C 5,6 C 2,7 C 3,0 C 2,7 C 0,0 C 87 % 90 % 1025,8 hPa 0,0 l/m 0,0 km/h (0 Bft) W-SW 247 0 min 1,2 C 2,7 C 0,0 km/h (0 Bft)
23.03.2021 06:45 3,1 C 5,6 C 2,8 C 3,0 C 2,7 C 0,0 C 87 % 90 % 1025,8 hPa 0,0 l/m 0,0 km/h (0 Bft) W 270 0 min 1,2 C 2,7 C 0,0 km/h (0 Bft)
23.03.2021 06:50 3,1 C 5,6 C 2,8 C 3,0 C 2,7 C 0,0 C 87 % 91 % 1025,8 hPa 0,0 l/m 0,0 km/h (0 Bft) S-SW 202 0 min 1,2 C 2,7 C 0,0 km/h (0 Bft)
23.03.2021 06:55 3,1 C 5,6 C 2,8 C 3,0 C 2,8 C 0,0 C 87 % 91 % 1025,8 hPa 0,0 l/m 0,0 km/h (0 Bft) SW 225 0 min 1,2 C 2,8 C 0,0 km/h (0 Bft)
23.03.2021 07:00 3,1 C 5,5 C 2,9 C 3,0 C 2,8 C 0,0 C 87 % 91 % 1025,8 hPa 0,0 l/m 0,2 km/h (0 Bft) W 270 0 min 1,2 C 2,8 C 0,0 km/h (0 Bft)
23.03.2021 07:05 3,1 C 5,6 C 2,9 C 3,0 C 2,8 C 0,0 C 87 % 91 % 1025,8 hPa 0,0 l/m 0,3 km/h (0 Bft) W-SW 247 0 min 1,2 C 2,8 C 0,0 km/h (0 Bft)
23.03.2021 07:10 3,1 C 5,6 C 2,9 C 3,0 C 2,9 C 0,0 C 87 % 91 % 1026,0 hPa 0,0 l/m 0,2 km/h (0 Bft) SW 225 0 min 1,2 C 2,9 C 2,3 km/h (1 Bft)
23.03.2021 07:15 3,1 C 5,6 C 3,0 C 3,0 C 2,9 C 0,0 C 87 % 91 % 1026,0 hPa 0,0 l/m 0,5 km/h (0 Bft) SW 225 0 min 1,2 C 2,9 C 0,0 km/h (0 Bft)
23.03.2021 07:20 3,1 C 5,6 C 3,1 C 3,1 C 3,0 C 0,0 C 87 % 91 % 1026,0 hPa 0,0 l/m 0,6 km/h (0 Bft) S-SW 202 0 min 1,2 C 3,0 C 2,9 km/h (1 Bft)
23.03.2021 07:25 3,2 C 5,6 C 3,1 C 3,2 C 3,1 C 0,0 C 87 % 91 % 1026,0 hPa 0,0 l/m 0,6 km/h (0 Bft) W-SW 247 0 min 1,2 C 3,1 C 0,0 km/h (0 Bft)
23.03.2021 07:30 3,2 C 5,6 C 3,2 C 3,2 C 3,2 C 0,0 C 87 % 91 % 1026,0 hPa 0,0 l/m 0,8 km/h (0 Bft) S-SW 202 0 min 1,2 C 3,2 C 3,5 km/h (1 Bft)
23.03.2021 07:35 3,3 C 5,6 C 3,2 C 3,3 C 3,2 C 0,0 C 87 % 91 % 1026,0 hPa 0,0 l/m 0,6 km/h (0 Bft) W-SW 247 0 min 1,3 C 3,2 C 0,0 km/h (0 Bft)
23.03.2021 07:40 3,2 C 5,6 C 3,3 C 3,4 C 3,4 C 0,2 C 87 % 91 % 1026,0 hPa 0,0 l/m 0,6 km/h (0 Bft) SW 225 0 min 1,2 C 3,4 C 0,0 km/h (0 Bft)
23.03.2021 07:45 3,2 C 5,6 C 3,3 C 3,4 C 3,4 C 0,2 C 87 % 91 % 1026,0 hPa 0,0 l/m 0,8 km/h (0 Bft) SW 225 0 min 1,2 C 3,4 C 0,0 km/h (0 Bft)
23.03.2021 07:50 3,3 C 5,6 C 3,4 C 3,5 C 3,5 C 0,2 C 87 % 91 % 1025,8 hPa 0,0 l/m 0,6 km/h (0 Bft) SW 225 0 min 1,3 C 3,5 C 1,8 km/h (1 Bft)
23.03.2021 07:55 3,3 C 5,6 C 3,5 C 3,6 C 3,6 C 0,3 C 87 % 91 % 1025,8 hPa 0,0 l/m 0,5 km/h (0 Bft) W-SW 247 0 min 1,3 C 3,6 C 0,0 km/h (0 Bft)
23.03.2021 08:00 3,4 C 5,6 C 3,6 C 3,8 C 3,8 C 0,4 C 87 % 91 % 1025,8 hPa 0,0 l/m 1,4 km/h (1 Bft) W 270 0 min 1,4 C 3,8 C 5,1 km/h (1 Bft)
23.03.2021 08:05 3,4 C 5,6 C 3,6 C 3,9 C 3,9 C 0,5 C 87 % 91 % 1025,8 hPa 0,0 l/m 1,4 km/h (1 Bft) SW 225 0 min 1,4 C 3,9 C 0,0 km/h (0 Bft)
23.03.2021 08:10 3,5 C 5,6 C 3,7 C 4,1 C 4,1 C 0,6 C 87 % 91 % 1025,8 hPa 0,0 l/m 1,6 km/h (1 Bft) SW 225 0 min 1,5 C 4,1 C 6,8 km/h (2 Bft)
23.03.2021 08:15 3,5 C 5,6 C 3,7 C 4,1 C 4,1 C 0,6 C 87 % 91 % 1025,8 hPa 0,0 l/m 1,6 km/h (1 Bft) W-SW 247 0 min 1,5 C 4,1 C 2,1 km/h (1 Bft)
23.03.2021 08:20 3,5 C 5,6 C 3,9 C 4,3 C 4,3 C 0,8 C 87 % 90 % 1025,8 hPa 0,0 l/m 2,9 km/h (1 Bft) W 270 0 min 1,5 C 4,3 C 9,3 km/h (2 Bft)
23.03.2021 08:25 3,6 C 5,5 C 3,9 C 4,3 C 4,3 C 0,7 C 87 % 90 % 1025,8 hPa 0,0 l/m 3,2 km/h (1 Bft) S 180 0 min 1,6 C 4,3 C 6,0 km/h (2 Bft)
23.03.2021 08:30 3,6 C 5,5 C 4,1 C 4,8 C 4,8 C 1,2 C 87 % 90 % 1026,1 hPa 0,0 l/m 2,6 km/h (1 Bft) S-SW 202 0 min 1,6 C 4,8 C 3,7 km/h (1 Bft)
23.03.2021 08:35 3,6 C 5,5 C 4,2 C 4,9 C 4,9 C 1,3 C 87 % 90 % 1026,1 hPa 0,0 l/m 3,1 km/h (1 Bft) SW 225 0 min 1,6 C 4,9 C 3,5 km/h (1 Bft)
23.03.2021 08:40 3,7 C 5,5 C 4,3 C 5,1 C 5,1 C 1,4 C 88 % 90 % 1026,1 hPa 0,0 l/m 3,1 km/h (1 Bft) SW 225 0 min 1,9 C 5,1 C 4,3 km/h (1 Bft)
23.03.2021 08:45 3,9 C 5,5 C 4,3 C 5,1 C 5,1 C 1,2 C 88 % 90 % 1026,1 hPa 0,0 l/m 2,4 km/h (1 Bft) S 180 0 min 2,1 C 5,1 C 4,2 km/h (1 Bft)
23.03.2021 08:50 3,8 C 5,5 C 4,3 C 5,0 C 5,0 C 1,2 C 88 % 90 % 1026,1 hPa 0,0 l/m 2,4 km/h (1 Bft) S 180 0 min 2,0 C 5,0 C 5,8 km/h (2 Bft)
23.03.2021 08:55 3,9 C 5,4 C 4,3 C 5,1 C 5,1 C 1,2 C 88 % 90 % 1026,1 hPa 0,0 l/m 2,4 km/h (1 Bft) SW 225 0 min 2,1 C 5,1 C 6,9 km/h (2 Bft)
23.03.2021 09:00 3,9 C 5,5 C 4,3 C 5,0 C 5,0 C 1,1 C 88 % 90 % 1026,1 hPa 0,0 l/m 2,9 km/h (1 Bft) W-SW 247 0 min 2,1 C 5,0 C 5,8 km/h (2 Bft)
23.03.2021 09:05 4,0 C 5,5 C 4,3 C 4,9 C 4,9 C 0,9 C 88 % 90 % 1026,1 hPa 0,0 l/m 3,4 km/h (1 Bft) W-NW 292 0 min 2,2 C 4,9 C 4,3 km/h (1 Bft)
23.03.2021 09:10 4,0 C 5,4 C 4,3 C 4,8 C 4,8 C 0,8 C 87 % 89 % 1026,2 hPa 0,0 l/m 3,4 km/h (1 Bft) SW 225 0 min 2,0 C 4,8 C 2,6 km/h (1 Bft)
23.03.2021 09:15 4,0 C 5,4 C 4,3 C 5,1 C 5,1 C 1,1 C 87 % 89 % 1026,2 hPa 0,0 l/m 2,3 km/h (1 Bft) S 180 0 min 2,0 C 5,1 C 1,9 km/h (1 Bft)
23.03.2021 09:20 4,1 C 5,4 C 4,6 C 5,4 C 5,4 C 1,3 C 87 % 89 % 1026,2 hPa 0,0 l/m 1,3 km/h (1 Bft) SW 225 0 min 2,1 C 5,4 C 3,4 km/h (1 Bft)
23.03.2021 09:25 4,3 C 5,4 C 4,6 C 5,5 C 5,5 C 1,2 C 87 % 89 % 1026,2 hPa 0,0 l/m 2,3 km/h (1 Bft) W 270 0 min 2,3 C 5,5 C 6,0 km/h (2 Bft)
23.03.2021 09:30 4,2 C 5,4 C 4,6 C 5,5 C 5,5 C 1,3 C 87 % 89 % 1026,5 hPa 0,0 l/m 2,6 km/h (1 Bft) SW 225 0 min 2,2 C 5,5 C 0,0 km/h (0 Bft)
23.03.2021 09:35 4,3 C 5,4 C 4,5 C 5,5 C 5,5 C 1,2 C 87 % 88 % 1026,5 hPa 0,0 l/m 2,1 km/h (1 Bft) NW 315 0 min 2,3 C 5,5 C 0,0 km/h (0 Bft)
23.03.2021 09:40 4,3 C 5,4 C 4,4 C 5,2 C 5,2 C 0,9 C 87 % 88 % 1026,5 hPa 0,0 l/m 1,6 km/h (1 Bft) SW 225 0 min 2,3 C 5,2 C 3,7 km/h (1 Bft)
23.03.2021 09:45 4,3 C 5,4 C 4,4 C 5,1 C 5,1 C 0,8 C 87 % 88 % 1026,5 hPa 0,0 l/m 2,1 km/h (1 Bft) SW 225 0 min 2,3 C 5,1 C 5,3 km/h (1 Bft)
23.03.2021 09:50 4,3 C 5,4 C 4,4 C 5,0 C 5,0 C 0,7 C 86 % 88 % 1026,5 hPa 0,0 l/m 2,7 km/h (1 Bft) S-SW 202 0 min 2,2 C 5,0 C 2,6 km/h (1 Bft)
23.03.2021 09:55 4,3 C 5,4 C 4,6 C 5,2 C 5,2 C 0,9 C 87 % 88 % 1026,5 hPa 0,0 l/m 2,9 km/h (1 Bft) NW 315 0 min 2,3 C 5,2 C 4,7 km/h (1 Bft)
23.03.2021 10:00 4,4 C 5,4 C 4,7 C 5,4 C 5,4 C 1,0 C 87 % 88 % 1026,5 hPa 0,0 l/m 2,1 km/h (1 Bft) S-SW 202 0 min 2,4 C 5,4 C 5,6 km/h (1 Bft)
23.03.2021 10:05 4,4 C 5,4 C 4,8 C 5,6 C 5,6 C 1,2 C 86 % 88 % 1026,5 hPa 0,0 l/m 2,1 km/h (1 Bft) W-SW 247 0 min 2,3 C 5,6 C 0,0 km/h (0 Bft)
23.03.2021 10:10 4,5 C 5,4 C 4,9 C 5,8 C 5,8 C 1,3 C 86 % 88 % 1026,5 hPa 0,0 l/m 2,6 km/h (1 Bft) S-SW 202 0 min 2,4 C 5,8 C 1,6 km/h (1 Bft)
23.03.2021 10:15 4,5 C 5,4 C 5,0 C 5,9 C 5,9 C 1,4 C 86 % 88 % 1026,5 hPa 0,0 l/m 2,3 km/h (1 Bft) S 180 0 min 2,4 C 5,9 C 5,5 km/h (1 Bft)
23.03.2021 10:20 4,7 C 5,4 C 5,1 C 6,1 C 6,1 C 1,4 C 86 % 87 % 1026,5 hPa 0,0 l/m 2,7 km/h (1 Bft) S-SW 202 0 min 2,6 C 6,1 C 2,1 km/h (1 Bft)
23.03.2021 10:25 4,7 C 5,4 C 5,1 C 6,1 C 6,1 C 1,4 C 86 % 87 % 1026,5 hPa 0,0 l/m 2,6 km/h (1 Bft) S 180 0 min 2,6 C 6,1 C 1,6 km/h (1 Bft)
23.03.2021 10:30 4,7 C 5,4 C 5,1 C 6,1 C 6,1 C 1,4 C 86 % 87 % 1026,8 hPa 0,0 l/m 2,6 km/h (1 Bft) S-SW 202 0 min 2,6 C 6,1 C 6,8 km/h (2 Bft)
23.03.2021 10:35 4,7 C 5,4 C 5,0 C 6,0 C 6,0 C 1,3 C 86 % 87 % 1026,8 hPa 0,0 l/m 3,2 km/h (1 Bft) SW 225 0 min 2,6 C 6,0 C 2,4 km/h (1 Bft)
23.03.2021 10:40 4,7 C 5,4 C 5,0 C 5,8 C 5,8 C 1,1 C 86 % 87 % 1026,8 hPa 0,0 l/m 2,6 km/h (1 Bft) W-SW 247 0 min 2,6 C 5,8 C 2,1 km/h (1 Bft)
23.03.2021 10:45 4,7 C 5,4 C 4,9 C 5,8 C 5,8 C 1,1 C 86 % 87 % 1026,8 hPa 0,0 l/m 2,3 km/h (1 Bft) W-SW 247 0 min 2,6 C 5,8 C 3,9 km/h (1 Bft)
23.03.2021 10:50 4,6 C 5,4 C 4,9 C 5,7 C 5,7 C 1,1 C 85 % 87 % 1026,8 hPa 0,0 l/m 2,7 km/h (1 Bft) S-SW 202 0 min 2,3 C 5,7 C 2,1 km/h (1 Bft)
23.03.2021 10:55 4,7 C 5,4 C 5,1 C 5,7 C 5,7 C 1,0 C 85 % 87 % 1026,8 hPa 0,0 l/m 2,7 km/h (1 Bft) W-SW 247 0 min 2,4 C 5,7 C 1,6 km/h (1 Bft)
23.03.2021 11:00 4,8 C 5,4 C 5,1 C 6,0 C 6,0 C 1,2 C 86 % 87 % 1026,8 hPa 0,0 l/m 1,1 km/h (1 Bft) S 180 0 min 2,7 C 6,0 C 0,0 km/h (0 Bft)
23.03.2021 11:05 4,9 C 5,4 C 5,2 C 6,1 C 6,1 C 1,2 C 85 % 86 % 1026,8 hPa 0,0 l/m 1,1 km/h (1 Bft) W-SW 247 0 min 2,6 C 6,1 C 3,2 km/h (1 Bft)
23.03.2021 11:10 4,8 C 5,4 C 5,3 C 6,1 C 6,1 C 1,3 C 85 % 86 % 1026,8 hPa 0,0 l/m 1,4 km/h (1 Bft) S 180 0 min 2,5 C 6,1 C 0,0 km/h (0 Bft)
23.03.2021 11:15 4,8 C 5,4 C 5,2 C 6,1 C 6,1 C 1,3 C 85 % 86 % 1026,8 hPa 0,0 l/m 1,8 km/h (1 Bft) W-SW 247 0 min 2,5 C 6,1 C 3,1 km/h (1 Bft)
23.03.2021 11:20 4,9 C 5,4 C 5,3 C 6,2 C 6,2 C 1,3 C 85 % 86 % 1026,8 hPa 0,0 l/m 1,1 km/h (1 Bft) W-SW 247 0 min 2,6 C 6,2 C 0,0 km/h (0 Bft)
23.03.2021 11:25 5,1 C 5,4 C 5,3 C 6,4 C 6,4 C 1,3 C 85 % 86 % 1026,8 hPa 0,0 l/m 0,5 km/h (0 Bft) W 270 0 min 2,8 C 6,4 C 0,0 km/h (0 Bft)
23.03.2021 11:30 5,0 C 5,4 C 5,3 C 6,2 C 6,2 C 1,2 C 85 % 86 % 1026,8 hPa 0,0 l/m 1,1 km/h (1 Bft) W-SW 247 0 min 2,7 C 6,2 C 5,0 km/h (1 Bft)
23.03.2021 11:35 5,1 C 5,4 C 5,2 C 6,1 C 6,1 C 1,0 C 85 % 86 % 1026,8 hPa 0,0 l/m 1,4 km/h (1 Bft) S 180 0 min 2,8 C 6,1 C 5,5 km/h (1 Bft)
23.03.2021 11:40 5,1 C 5,4 C 5,2 C 6,0 C 6,0 C 0,9 C 84 % 86 % 1026,8 hPa 0,0 l/m 1,6 km/h (1 Bft) SW 225 0 min 2,6 C 6,0 C 0,0 km/h (0 Bft)
23.03.2021 11:45 5,1 C 5,4 C 5,2 C 6,0 C 6,0 C 0,9 C 84 % 86 % 1026,8 hPa 0,0 l/m 1,9 km/h (1 Bft) W-SW 247 0 min 2,6 C 6,0 C 2,7 km/h (1 Bft)
23.03.2021 11:50 5,1 C 5,4 C 5,6 C 6,4 C 6,4 C 1,3 C 84 % 86 % 1026,6 hPa 0,0 l/m 1,3 km/h (1 Bft) W-SW 247 0 min 2,6 C 6,4 C 0,0 km/h (0 Bft)
23.03.2021 11:55 5,3 C 5,4 C 5,8 C 6,8 C 6,8 C 1,5 C 84 % 85 % 1026,6 hPa 0,0 l/m 1,0 km/h (0 Bft) W-NW 292 0 min 2,8 C 6,8 C 0,0 km/h (0 Bft)
23.03.2021 12:00 5,3 C 5,4 C 6,1 C 7,3 C 7,3 C 2,0 C 84 % 85 % 1026,6 hPa 0,0 l/m 2,1 km/h (1 Bft) W 270 0 min 2,8 C 7,3 C 5,3 km/h (1 Bft)
23.03.2021 12:05 5,3 C 5,4 C 6,1 C 7,5 C 7,5 C 2,2 C 84 % 84 % 1026,6 hPa 0,0 l/m 3,1 km/h (1 Bft) S 180 0 min 2,8 C 7,5 C 4,0 km/h (1 Bft)
23.03.2021 12:10 5,3 C 5,4 C 6,1 C 7,5 C 7,5 C 2,2 C 84 % 84 % 1027,4 hPa 0,0 l/m 3,1 km/h (1 Bft) S 180 0 min 2,8 C 7,5 C 4,0 km/h (1 Bft)
23.03.2021 12:15 5,3 C 5,2 C 6,1 C 8,1 C 8,1 C 2,8 C 84 % 84 % 1027,4 hPa 0,0 l/m 1,3 km/h (1 Bft) S 180 0 min 2,8 C 8,1 C 0,0 km/h (0 Bft)
23.03.2021 12:20 5,7 C 5,2 C 6,7 C 8,4 C 8,4 C 2,7 C 82 % 81 % 1027,4 hPa 0,0 l/m 2,3 km/h (1 Bft) S-SW 202 0 min 2,9 C 8,4 C 4,5 km/h (1 Bft)
23.03.2021 12:25 5,7 C 5,2 C 6,8 C 8,4 C 8,4 C 2,7 C 81 % 81 % 1027,4 hPa 0,0 l/m 2,7 km/h (1 Bft) SW 225 0 min 2,7 C 8,4 C 3,9 km/h (1 Bft)
23.03.2021 12:30 5,9 C 5,4 C 7,0 C 8,4 C 8,4 C 2,5 C 81 % 81 % 1027,4 hPa 0,0 l/m 2,4 km/h (1 Bft) W 270 0 min 2,9 C 8,4 C 2,9 km/h (1 Bft)
23.03.2021 12:35 5,9 C 5,4 C 7,0 C 8,4 C 8,4 C 2,5 C 81 % 80 % 1027,4 hPa 0,0 l/m 2,1 km/h (1 Bft) S-SO 157 0 min 2,9 C 8,4 C 0,0 km/h (0 Bft)
23.03.2021 12:40 5,9 C 5,2 C 7,0 C 8,4 C 8,4 C 2,5 C 80 % 79 % 1027,4 hPa 0,0 l/m 2,7 km/h (1 Bft) S 180 0 min 2,7 C 8,4 C 0,0 km/h (0 Bft)
23.03.2021 12:45 5,9 C 5,2 C 7,0 C 8,4 C 8,4 C 2,5 C 80 % 79 % 1027,4 hPa 0,0 l/m 2,3 km/h (1 Bft) SW 225 0 min 2,7 C 8,4 C 2,4 km/h (1 Bft)
23.03.2021 12:50 6,0 C 5,4 C 7,1 C 8,4 C 8,4 C 2,4 C 80 % 79 % 1027,4 hPa 0,0 l/m 2,1 km/h (1 Bft) SO 135 0 min 2,8 C 8,4 C 9,8 km/h (2 Bft)
23.03.2021 12:55 6,1 C 5,2 C 7,1 C 8,4 C 8,4 C 2,3 C 79 % 78 % 1027,4 hPa 0,0 l/m 2,3 km/h (1 Bft) SW 225 0 min 2,7 C 8,4 C 3,5 km/h (1 Bft)
23.03.2021 13:00 6,1 C 5,4 C 7,0 C 8,4 C 8,4 C 2,3 C 79 % 78 % 1027,4 hPa 0,0 l/m 2,1 km/h (1 Bft) SW 225 0 min 2,7 C 8,4 C 11,1 km/h (2 Bft)
23.03.2021 13:05 6,0 C 5,4 C 6,9 C 8,1 C 8,1 C 2,1 C 78 % 78 % 1027,4 hPa 0,0 l/m 2,7 km/h (1 Bft) SW 225 0 min 2,5 C 8,1 C 8,0 km/h (2 Bft)
23.03.2021 13:10 5,9 C 5,4 C 6,7 C 7,5 C 7,5 C 1,6 C 78 % 78 % 1026,9 hPa 0,0 l/m 3,9 km/h (1 Bft) SW 225 0 min 2,4 C 7,5 C 6,0 km/h (2 Bft)
23.03.2021 13:15 5,9 C 5,4 C 6,7 C 7,1 C 7,1 C 1,2 C 78 % 78 % 1026,9 hPa 0,0 l/m 4,2 km/h (1 Bft) SW 225 0 min 2,4 C 7,1 C 3,7 km/h (1 Bft)
23.03.2021 13:20 5,9 C 5,4 C 6,7 C 7,0 C 7,0 C 1,1 C 78 % 78 % 1026,9 hPa 0,0 l/m 4,0 km/h (1 Bft) SW 225 0 min 2,4 C 7,0 C 3,7 km/h (1 Bft)
23.03.2021 13:25 5,9 C 5,4 C 6,7 C 7,2 C 7,2 C 1,3 C 78 % 78 % 1026,9 hPa 0,0 l/m 3,9 km/h (1 Bft) SW 225 0 min 2,4 C 7,2 C 2,9 km/h (1 Bft)
23.03.2021 13:30 5,9 C 5,4 C 6,4 C 7,1 C 7,1 C 1,2 C 78 % 78 % 1026,7 hPa 0,0 l/m 3,1 km/h (1 Bft) W-SW 247 0 min 2,4 C 7,1 C 13,2 km/h (3 Bft)
23.03.2021 13:35 5,9 C 5,4 C 6,3 C 7,0 C 7,0 C 1,1 C 78 % 78 % 1026,7 hPa 0,0 l/m 2,1 km/h (1 Bft) W-SW 247 0 min 2,4 C 7,0 C 3,5 km/h (1 Bft)
23.03.2021 13:40 5,8 C 5,4 C 6,1 C 6,8 C 6,8 C 1,0 C 78 % 78 % 1026,7 hPa 0,0 l/m 1,4 km/h (1 Bft) W-SW 247 0 min 2,3 C 6,8 C 0,0 km/h (0 Bft)
23.03.2021 13:45 5,9 C 5,4 C 6,2 C 6,8 C 6,8 C 0,9 C 78 % 78 % 1026,7 hPa 0,0 l/m 1,1 km/h (1 Bft) S 180 0 min 2,4 C 6,8 C 6,3 km/h (2 Bft)
23.03.2021 13:50 5,9 C 5,4 C 6,1 C 6,7 C 6,7 C 0,8 C 77 % 78 % 1027,0 hPa 0,0 l/m 1,9 km/h (1 Bft) S 180 0 min 2,2 C 6,7 C 7,9 km/h (2 Bft)
23.03.2021 13:55 5,8 C 5,4 C 6,0 C 6,7 C 6,7 C 0,9 C 77 % 78 % 1027,0 hPa 0,0 l/m 2,4 km/h (1 Bft) SW 225 0 min 2,1 C 6,7 C 2,1 km/h (1 Bft)
23.03.2021 14:00 5,9 C 5,4 C 6,2 C 6,9 C 6,9 C 1,0 C 78 % 78 % 1027,0 hPa 0,0 l/m 1,3 km/h (1 Bft) S-SO 157 0 min 2,4 C 6,9 C 1,8 km/h (1 Bft)
23.03.2021 14:05 5,9 C 5,4 C 6,1 C 7,0 C 7,0 C 1,1 C 77 % 78 % 1027,0 hPa 0,0 l/m 0,8 km/h (0 Bft) W-SW 247 0 min 2,2 C 7,0 C 0,0 km/h (0 Bft)
23.03.2021 14:10 5,9 C 5,4 C 6,1 C 7,0 C 7,0 C 1,1 C 77 % 78 % 1026,8 hPa 0,0 l/m 1,0 km/h (0 Bft) W-SW 247 0 min 2,2 C 7,0 C 0,0 km/h (0 Bft)
23.03.2021 14:15 5,9 C 5,4 C 6,1 C 7,1 C 7,1 C 1,2 C 78 % 78 % 1026,8 hPa 0,0 l/m 0,8 km/h (0 Bft) SW 225 0 min 2,4 C 7,1 C 0,0 km/h (0 Bft)
23.03.2021 14:20 5,9 C 5,4 C 6,1 C 7,1 C 7,1 C 1,2 C 77 % 78 % 1026,8 hPa 0,0 l/m 1,4 km/h (1 Bft) S-SO 157 0 min 2,2 C 7,1 C 0,0 km/h (0 Bft)
23.03.2021 14:25 5,9 C 5,4 C 6,2 C 7,1 C 7,1 C 1,2 C 78 % 78 % 1026,8 hPa 0,0 l/m 1,6 km/h (1 Bft) SW 225 0 min 2,4 C 7,1 C 1,9 km/h (1 Bft)
23.03.2021 14:30 5,9 C 5,4 C 6,2 C 7,1 C 7,1 C 1,2 C 78 % 78 % 1026,9 hPa 0,0 l/m 1,1 km/h (1 Bft) N-NW 337 0 min 2,4 C 7,1 C 2,3 km/h (1 Bft)
23.03.2021 14:35 5,9 C 5,4 C 6,3 C 7,1 C 7,1 C 1,2 C 78 % 79 % 1026,9 hPa 0,0 l/m 1,1 km/h (1 Bft) SW 225 0 min 2,4 C 7,1 C 0,0 km/h (0 Bft)
23.03.2021 14:40 5,9 C 5,4 C 6,3 C 7,4 C 7,4 C 1,5 C 78 % 79 % 1026,9 hPa 0,0 l/m 1,3 km/h (1 Bft) SW 225 0 min 2,4 C 7,4 C 6,9 km/h (2 Bft)
23.03.2021 14:45 5,9 C 5,4 C 6,3 C 7,3 C 7,3 C 1,4 C 78 % 78 % 1026,9 hPa 0,0 l/m 1,9 km/h (1 Bft) W 270 0 min 2,4 C 7,3 C 0,0 km/h (0 Bft)
23.03.2021 14:50 5,9 C 5,4 C 6,3 C 7,2 C 7,2 C 1,3 C 78 % 78 % 1026,8 hPa 0,0 l/m 2,6 km/h (1 Bft) S-SW 202 0 min 2,4 C 7,2 C 3,9 km/h (1 Bft)
23.03.2021 14:55 5,9 C 5,4 C 6,4 C 7,2 C 7,2 C 1,3 C 78 % 79 % 1026,8 hPa 0,0 l/m 1,8 km/h (1 Bft) NW 315 0 min 2,4 C 7,2 C 0,0 km/h (0 Bft)
23.03.2021 15:00 6,0 C 5,4 C 6,4 C 7,3 C 7,3 C 1,3 C 78 % 79 % 1026,8 hPa 0,0 l/m 1,1 km/h (1 Bft) NW 315 0 min 2,5 C 7,3 C 1,8 km/h (1 Bft)
23.03.2021 15:05 6,0 C 5,4 C 6,3 C 7,2 C 7,2 C 1,2 C 78 % 78 % 1026,8 hPa 0,0 l/m 1,3 km/h (1 Bft) W-SW 247 0 min 2,5 C 7,2 C 0,0 km/h (0 Bft)
23.03.2021 15:10 5,9 C 5,4 C 6,3 C 7,1 C 7,1 C 1,2 C 78 % 78 % 1026,8 hPa 0,0 l/m 1,6 km/h (1 Bft) S-SO 157 0 min 2,4 C 7,1 C 0,0 km/h (0 Bft)
23.03.2021 15:15 6,0 C 5,4 C 6,3 C 7,0 C 7,0 C 1,0 C 78 % 79 % 1026,8 hPa 0,0 l/m 1,0 km/h (0 Bft) SW 225 0 min 2,5 C 7,0 C 1,8 km/h (1 Bft)
23.03.2021 15:20 5,9 C 5,4 C 6,2 C 7,0 C 7,0 C 1,1 C 78 % 79 % 1026,8 hPa 0,0 l/m 1,1 km/h (1 Bft) W 270 0 min 2,4 C 7,0 C 0,0 km/h (0 Bft)
23.03.2021 15:25 5,9 C 5,5 C 6,0 C 6,9 C 6,9 C 1,0 C 78 % 79 % 1026,8 hPa 0,0 l/m 1,6 km/h (1 Bft) W-SW 247 0 min 2,4 C 6,9 C 3,7 km/h (1 Bft)
23.03.2021 15:30 5,9 C 5,5 C 5,9 C 6,6 C 6,6 C 0,7 C 78 % 79 % 1026,8 hPa 0,0 l/m 1,6 km/h (1 Bft) W-SW 247 0 min 2,4 C 6,6 C 1,6 km/h (1 Bft)
23.03.2021 15:35 5,9 C 5,5 C 5,9 C 6,5 C 6,5 C 0,6 C 78 % 79 % 1026,8 hPa 0,0 l/m 1,9 km/h (1 Bft) W-SW 247 0 min 2,4 C 6,5 C 2,4 km/h (1 Bft)
23.03.2021 15:40 5,9 C 5,5 C 5,8 C 6,4 C 6,4 C 0,5 C 78 % 80 % 1026,8 hPa 0,0 l/m 1,1 km/h (1 Bft) W-NW 292 0 min 2,4 C 6,4 C 0,0 km/h (0 Bft)
23.03.2021 15:45 5,7 C 5,5 C 5,7 C 6,3 C 6,3 C 0,6 C 78 % 80 % 1026,8 hPa 0,0 l/m 0,6 km/h (0 Bft) W-SW 247 0 min 2,2 C 6,3 C 0,0 km/h (0 Bft)
23.03.2021 15:50 5,7 C 5,5 C 5,6 C 6,1 C 6,1 C 0,4 C 78 % 80 % 1026,8 hPa 0,0 l/m 0,2 km/h (0 Bft) N-NO 22 0 min 2,2 C 6,1 C 0,0 km/h (0 Bft)
23.03.2021 15:55 5,6 C 5,5 C 5,5 C 5,9 C 5,9 C 0,3 C 78 % 81 % 1026,8 hPa 0,0 l/m 0,5 km/h (0 Bft) S-SW 202 0 min 2,1 C 5,9 C 3,1 km/h (1 Bft)
23.03.2021 16:00 5,6 C 5,5 C 5,5 C 5,9 C 5,9 C 0,3 C 78 % 81 % 1026,8 hPa 0,0 l/m 1,0 km/h (0 Bft) NW 315 0 min 2,1 C 5,9 C 0,0 km/h (0 Bft)
23.03.2021 16:05 5,5 C 5,5 C 5,5 C 5,9 C 5,9 C 0,4 C 79 % 81 % 1026,8 hPa 0,0 l/m 1,1 km/h (1 Bft) S 180 0 min 2,2 C 5,9 C 0,0 km/h (0 Bft)
23.03.2021 16:10 5,5 C 5,5 C 5,5 C 5,9 C 5,9 C 0,4 C 79 % 81 % 1026,3 hPa 0,0 l/m 1,4 km/h (1 Bft) S-SW 202 0 min 2,2 C 5,9 C 0,0 km/h (0 Bft)
23.03.2021 16:15 5,6 C 5,5 C 5,5 C 6,1 C 6,1 C 0,5 C 79 % 81 % 1026,3 hPa 0,0 l/m 1,1 km/h (1 Bft) S 180 0 min 2,3 C 6,1 C 3,9 km/h (1 Bft)
23.03.2021 16:20 5,5 C 5,5 C 5,6 C 6,2 C 6,2 C 0,7 C 79 % 81 % 1026,3 hPa 0,0 l/m 0,8 km/h (0 Bft) S-SW 202 0 min 2,2 C 6,2 C 0,0 km/h (0 Bft)
23.03.2021 16:25 5,6 C 5,5 C 5,6 C 6,3 C 6,3 C 0,7 C 80 % 82 % 1026,3 hPa 0,0 l/m 0,6 km/h (0 Bft) S 180 0 min 2,4 C 6,3 C 0,0 km/h (0 Bft)
23.03.2021 16:30 5,6 C 5,5 C 5,6 C 6,4 C 6,4 C 0,8 C 80 % 82 % 1026,4 hPa 0,0 l/m 0,3 km/h (0 Bft) SW 225 0 min 2,4 C 6,4 C 0,0 km/h (0 Bft)
23.03.2021 16:35 5,7 C 5,5 C 5,5 C 6,4 C 6,4 C 0,7 C 80 % 82 % 1026,4 hPa 0,0 l/m 0,2 km/h (0 Bft) S 180 0 min 2,5 C 6,4 C 0,0 km/h (0 Bft)
23.03.2021 16:40 5,6 C 5,5 C 5,5 C 6,2 C 6,2 C 0,6 C 80 % 82 % 1026,4 hPa 0,0 l/m 0,2 km/h (0 Bft) W 270 0 min 2,4 C 6,2 C 0,0 km/h (0 Bft)
23.03.2021 16:45 5,6 C 5,5 C 5,4 C 6,1 C 6,1 C 0,5 C 80 % 82 % 1026,4 hPa 0,0 l/m 0,2 km/h (0 Bft) SW 225 0 min 2,4 C 6,1 C 0,0 km/h (0 Bft)
23.03.2021 16:50 5,5 C 5,5 C 5,3 C 5,9 C 5,9 C 0,4 C 80 % 82 % 1026,1 hPa 0,0 l/m 0,0 km/h (0 Bft) SW 225 0 min 2,3 C 5,9 C 0,0 km/h (0 Bft)
23.03.2021 16:55 5,5 C 5,5 C 5,2 C 5,8 C 5,8 C 0,3 C 80 % 82 % 1026,1 hPa 0,0 l/m 0,0 km/h (0 Bft) SW 225 0 min 2,3 C 5,8 C 0,0 km/h (0 Bft)
23.03.2021 17:00 5,5 C 5,6 C 5,1 C 5,7 C 5,7 C 0,2 C 80 % 83 % 1026,1 hPa 0,0 l/m 0,2 km/h (0 Bft) S-SW 202 0 min 2,3 C 5,7 C 0,0 km/h (0 Bft)
23.03.2021 17:05 5,3 C 5,6 C 5,1 C 5,6 C 5,6 C 0,3 C 80 % 83 % 1026,1 hPa 0,0 l/m 0,0 km/h (0 Bft) W 270 0 min 2,1 C 5,6 C 0,0 km/h (0 Bft)
23.03.2021 17:10 5,3 C 5,6 C 5,1 C 5,5 C 5,5 C 0,2 C 81 % 83 % 1026,1 hPa 0,0 l/m 0,3 km/h (0 Bft) S-SW 202 0 min 2,3 C 5,5 C 0,0 km/h (0 Bft)
23.03.2021 17:15 5,3 C 5,6 C 5,1 C 5,5 C 5,5 C 0,2 C 81 % 83 % 1026,1 hPa 0,0 l/m 0,3 km/h (0 Bft) W-SW 247 0 min 2,3 C 5,5 C 0,0 km/h (0 Bft)
23.03.2021 17:20 5,2 C 5,6 C 5,0 C 5,5 C 5,5 C 0,3 C 81 % 84 % 1026,1 hPa 0,0 l/m 0,2 km/h (0 Bft) W-SW 247 0 min 2,2 C 5,5 C 0,0 km/h (0 Bft)
23.03.2021 17:25 5,3 C 5,6 C 5,0 C 5,5 C 5,5 C 0,2 C 81 % 84 % 1026,1 hPa 0,0 l/m 0,0 km/h (0 Bft) SW 225 0 min 2,3 C 5,5 C 0,0 km/h (0 Bft)
23.03.2021 17:30 5,2 C 5,6 C 4,9 C 5,4 C 5,4 C 0,2 C 81 % 84 % 1026,1 hPa 0,0 l/m 0,0 km/h (0 Bft) SW 225 0 min 2,2 C 5,4 C 0,0 km/h (0 Bft)
23.03.2021 17:35 5,2 C 5,6 C 4,9 C 5,4 C 5,4 C 0,2 C 81 % 84 % 1026,1 hPa 0,0 l/m 0,0 km/h (0 Bft) S-SW 202 0 min 2,2 C 5,4 C 0,0 km/h (0 Bft)
23.03.2021 17:40 5,3 C 5,6 C 4,9 C 5,4 C 5,4 C 0,1 C 81 % 84 % 1026,1 hPa 0,0 l/m 0,0 km/h (0 Bft) SW 225 0 min 2,3 C 5,4 C 0,0 km/h (0 Bft)
23.03.2021 17:45 5,3 C 5,6 C 4,9 C 5,4 C 5,4 C 0,1 C 81 % 84 % 1026,1 hPa 0,0 l/m 0,0 km/h (0 Bft) SW 225 0 min 2,3 C 5,4 C 0,0 km/h (0 Bft)
23.03.2021 17:50 5,2 C 5,6 C 4,8 C 5,3 C 5,3 C 0,1 C 81 % 84 % 1026,5 hPa 0,0 l/m 0,0 km/h (0 Bft) W-SW 247 0 min 2,2 C 5,3 C 0,0 km/h (0 Bft)
23.03.2021 17:55 5,2 C 5,6 C 4,8 C 5,2 C 5,2 C 0,0 C 82 % 85 % 1026,5 hPa 0,0 l/m 0,0 km/h (0 Bft) SW 225 0 min 2,4 C 5,2 C 0,0 km/h (0 Bft)
23.03.2021 18:00 5,2 C 5,6 C 4,7 C 5,2 C 5,2 C 0,0 C 82 % 85 % 1026,5 hPa 0,0 l/m 0,0 km/h (0 Bft) SW 225 0 min 2,4 C 5,2 C 0,0 km/h (0 Bft)
23.03.2021 18:05 5,1 C 5,6 C 4,7 C 5,1 C 5,1 C 0,0 C 82 % 85 % 1026,5 hPa 0,0 l/m 0,0 km/h (0 Bft) S 180 0 min 2,3 C 5,1 C 0,0 km/h (0 Bft)
23.03.2021 18:10 5,1 C 5,6 C 4,7 C 5,1 C 5,1 C 0,0 C 82 % 85 % 1026,5 hPa 0,0 l/m 0,0 km/h (0 Bft) S 180 0 min 2,3 C 5,1 C 0,0 km/h (0 Bft)
23.03.2021 18:15 5,1 C 5,6 C 4,7 C 5,1 C 5,1 C 0,0 C 82 % 85 % 1026,5 hPa 0,0 l/m 0,0 km/h (0 Bft) S-SW 202 0 min 2,3 C 5,1 C 0,0 km/h (0 Bft)
23.03.2021 18:20 5,1 C 5,6 C 4,6 C 5,1 C 5,1 C 0,0 C 82 % 85 % 1026,5 hPa 0,0 l/m 0,0 km/h (0 Bft) S-SW 202 0 min 2,3 C 5,1 C 0,0 km/h (0 Bft)
23.03.2021 18:25 5,0 C 5,6 C 4,6 C 5,1 C 5,1 C 0,1 C 82 % 85 % 1026,5 hPa 0,0 l/m 0,0 km/h (0 Bft) S-SW 202 0 min 2,2 C 5,1 C 0,0 km/h (0 Bft)
23.03.2021 18:30 5,1 C 5,7 C 4,5 C 5,1 C 5,1 C 0,0 C 82 % 86 % 1026,5 hPa 0,0 l/m 0,0 km/h (0 Bft) S-SW 202 0 min 2,3 C 5,1 C 0,0 km/h (0 Bft)
23.03.2021 18:35 5,1 C 5,7 C 4,5 C 5,1 C 5,0 C 0,0 C 82 % 86 % 1026,5 hPa 0,0 l/m 0,0 km/h (0 Bft) S-SW 202 0 min 2,3 C 5,0 C 0,0 km/h (0 Bft)
23.03.2021 18:40 5,1 C 5,7 C 4,5 C 5,1 C 5,0 C 0,0 C 83 % 86 % 1026,5 hPa 0,0 l/m 0,0 km/h (0 Bft) S-SW 202 0 min 2,5 C 5,0 C 0,0 km/h (0 Bft)
23.03.2021 18:45 5,1 C 5,7 C 4,5 C 5,1 C 5,0 C 0,0 C 83 % 86 % 1026,5 hPa 0,0 l/m 0,0 km/h (0 Bft) S-SW 202 0 min 2,5 C 5,0 C 0,0 km/h (0 Bft)
23.03.2021 18:50 4,9 C 5,7 C 4,5 C 4,9 C 4,9 C 0,0 C 83 % 86 % 1027,0 hPa 0,0 l/m 0,0 km/h (0 Bft) S-SW 202 0 min 2,3 C 4,9 C 0,0 km/h (0 Bft)
23.03.2021 18:55 4,9 C 5,7 C 4,5 C 4,9 C 4,9 C 0,0 C 83 % 86 % 1027,0 hPa 0,0 l/m 0,0 km/h (0 Bft) S-SW 202 0 min 2,3 C 4,9 C 0,0 km/h (0 Bft)
23.03.2021 19:00 4,9 C 5,7 C 4,4 C 4,9 C 4,8 C 0,0 C 83 % 86 % 1027,0 hPa 0,0 l/m 0,0 km/h (0 Bft) S-SW 202 0 min 2,3 C 4,8 C 0,0 km/h (0 Bft)
23.03.2021 19:05 4,9 C 5,7 C 4,4 C 4,9 C 4,8 C 0,0 C 83 % 86 % 1027,0 hPa 0,0 l/m 0,0 km/h (0 Bft) S-SW 202 0 min 2,3 C 4,8 C 0,0 km/h (0 Bft)
23.03.2021 19:10 4,9 C 5,7 C 4,4 C 4,9 C 4,8 C 0,0 C 83 % 86 % 1026,9 hPa 0,0 l/m 0,0 km/h (0 Bft) S-SW 202 0 min 2,3 C 4,8 C 0,0 km/h (0 Bft)
23.03.2021 19:15 4,9 C 5,7 C 4,3 C 4,9 C 4,8 C 0,0 C 83 % 86 % 1026,9 hPa 0,0 l/m 0,0 km/h (0 Bft) S-SW 202 0 min 2,3 C 4,8 C 0,0 km/h (0 Bft)
23.03.2021 19:20 4,8 C 5,7 C 4,3 C 4,8 C 4,7 C 0,0 C 83 % 86 % 1026,9 hPa 0,0 l/m 0,0 km/h (0 Bft) S-SW 202 0 min 2,2 C 4,7 C 0,0 km/h (0 Bft)
23.03.2021 19:25 4,9 C 5,8 C 4,2 C 4,8 C 4,6 C 0,0 C 83 % 86 % 1026,9 hPa 0,0 l/m 0,0 km/h (0 Bft) S-SW 202 0 min 2,3 C 4,6 C 0,0 km/h (0 Bft)
23.03.2021 19:30 4,8 C 5,7 C 4,2 C 4,7 C 4,6 C 0,0 C 83 % 87 % 1026,9 hPa 0,0 l/m 0,0 km/h (0 Bft) S-SW 202 0 min 2,2 C 4,6 C 0,0 km/h (0 Bft)
23.03.2021 19:35 4,8 C 5,8 C 4,2 C 4,7 C 4,5 C 0,0 C 83 % 87 % 1026,9 hPa 0,0 l/m 0,0 km/h (0 Bft) S-SW 202 0 min 2,2 C 4,5 C 0,0 km/h (0 Bft)
23.03.2021 19:40 4,7 C 5,8 C 4,2 C 4,6 C 4,5 C 0,0 C 83 % 87 % 1026,9 hPa 0,0 l/m 0,0 km/h (0 Bft) S-SW 202 0 min 2,1 C 4,5 C 0,0 km/h (0 Bft)
23.03.2021 19:45 4,7 C 5,8 C 4,1 C 4,6 C 4,5 C 0,0 C 83 % 87 % 1026,9 hPa 0,0 l/m 0,0 km/h (0 Bft) S-SW 202 0 min 2,1 C 4,5 C 0,0 km/h (0 Bft)
23.03.2021 19:50 4,7 C 5,8 C 4,0 C 4,6 C 4,4 C 0,0 C 83 % 87 % 1027,6 hPa 0,0 l/m 0,0 km/h (0 Bft) S-SW 202 0 min 2,1 C 4,4 C 0,0 km/h (0 Bft)
23.03.2021 19:55 4,7 C 5,8 C 4,1 C 4,6 C 4,4 C 0,0 C 83 % 88 % 1027,6 hPa 0,0 l/m 0,0 km/h (0 Bft) S-SW 202 0 min 2,1 C 4,4 C 0,0 km/h (0 Bft)
23.03.2021 20:00 4,6 C 5,8 C 4,0 C 4,5 C 4,4 C 0,0 C 83 % 88 % 1027,6 hPa 0,0 l/m 0,0 km/h (0 Bft) S-SW 202 0 min 2,0 C 4,4 C 0,0 km/h (0 Bft)
23.03.2021 20:05 4,5 C 5,8 C 4,0 C 4,4 C 4,3 C 0,0 C 83 % 88 % 1027,6 hPa 0,0 l/m 0,0 km/h (0 Bft) S-SW 202 0 min 1,9 C 4,3 C 0,0 km/h (0 Bft)
23.03.2021 20:10 4,5 C 5,8 C 3,9 C 4,4 C 4,3 C 0,0 C 83 % 88 % 1027,5 hPa 0,0 l/m 0,0 km/h (0 Bft) S-SW 202 0 min 1,9 C 4,3 C 0,0 km/h (0 Bft)
23.03.2021 20:15 4,4 C 5,8 C 3,9 C 4,4 C 4,3 C 0,0 C 84 % 88 % 1027,5 hPa 0,0 l/m 0,0 km/h (0 Bft) S-SW 202 0 min 1,9 C 4,3 C 0,0 km/h (0 Bft)
23.03.2021 20:20 4,4 C 5,8 C 3,9 C 4,4 C 4,3 C 0,0 C 84 % 88 % 1027,5 hPa 0,0 l/m 0,0 km/h (0 Bft) S-SW 202 0 min 1,9 C 4,3 C 0,0 km/h (0 Bft)
23.03.2021 20:25 4,4 C 5,8 C 3,9 C 4,4 C 4,3 C 0,0 C 84 % 88 % 1027,5 hPa 0,0 l/m 0,0 km/h (0 Bft) S-SW 202 0 min 1,9 C 4,3 C 0,0 km/h (0 Bft)
23.03.2021 20:30 4,5 C 5,8 C 3,9 C 4,4 C 4,3 C 0,0 C 84 % 88 % 1027,5 hPa 0,0 l/m 0,0 km/h (0 Bft) S-SW 202 0 min 2,0 C 4,3 C 0,0 km/h (0 Bft)
23.03.2021 20:35 4,4 C 5,8 C 3,9 C 4,3 C 4,2 C 0,0 C 84 % 88 % 1027,5 hPa 0,0 l/m 0,0 km/h (0 Bft) S-SW 202 0 min 1,9 C 4,2 C 0,0 km/h (0 Bft)
23.03.2021 20:40 4,4 C 5,8 C 3,8 C 4,3 C 4,2 C 0,0 C 84 % 88 % 1027,5 hPa 0,0 l/m 0,0 km/h (0 Bft) S-SW 202 0 min 1,9 C 4,2 C 0,0 km/h (0 Bft)
23.03.2021 20:45 4,3 C 5,8 C 3,9 C 4,2 C 4,1 C 0,0 C 84 % 88 % 1027,5 hPa 0,0 l/m 0,0 km/h (0 Bft) S-SW 202 0 min 1,8 C 4,1 C 0,0 km/h (0 Bft)
23.03.2021 20:50 4,3 C 5,9 C 3,8 C 4,2 C 4,1 C 0,0 C 84 % 88 % 1027,5 hPa 0,0 l/m 0,0 km/h (0 Bft) S-SW 202 0 min 1,8 C 4,1 C 0,0 km/h (0 Bft)
23.03.2021 20:55 4,3 C 5,9 C 3,8 C 4,2 C 4,1 C 0,0 C 84 % 88 % 1027,5 hPa 0,0 l/m 0,0 km/h (0 Bft) S-SW 202 0 min 1,8 C 4,1 C 0,0 km/h (0 Bft)
23.03.2021 21:00 4,3 C 6,0 C 3,8 C 4,3 C 4,2 C 0,0 C 85 % 89 % 1027,5 hPa 0,0 l/m 0,0 km/h (0 Bft) S-SW 202 0 min 2,0 C 4,2 C 0,0 km/h (0 Bft)
23.03.2021 21:05 4,3 C 5,9 C 3,8 C 4,3 C 4,2 C 0,0 C 85 % 89 % 1027,5 hPa 0,0 l/m 0,0 km/h (0 Bft) S-SW 202 0 min 2,0 C 4,2 C 0,0 km/h (0 Bft)
23.03.2021 21:10 4,3 C 5,9 C 3,8 C 4,3 C 4,2 C 0,0 C 85 % 89 % 1027,4 hPa 0,0 l/m 0,0 km/h (0 Bft) S-SW 202 0 min 2,0 C 4,2 C 0,0 km/h (0 Bft)
23.03.2021 21:15 4,3 C 5,9 C 3,8 C 4,2 C 4,1 C 0,0 C 85 % 89 % 1027,4 hPa 0,0 l/m 0,0 km/h (0 Bft) S-SW 202 0 min 2,0 C 4,1 C 0,0 km/h (0 Bft)
23.03.2021 21:20 4,2 C 5,9 C 3,7 C 4,2 C 4,1 C 0,0 C 85 % 89 % 1027,4 hPa 0,0 l/m 0,0 km/h (0 Bft) S-SW 202 0 min 1,9 C 4,1 C 0,0 km/h (0 Bft)
23.03.2021 21:25 4,2 C 5,9 C 3,7 C 4,2 C 4,1 C 0,0 C 85 % 89 % 1027,4 hPa 0,0 l/m 0,0 km/h (0 Bft) S-SW 202 0 min 1,9 C 4,1 C 0,0 km/h (0 Bft)
23.03.2021 21:30 4,3 C 5,9 C 3,7 C 4,2 C 4,1 C 0,0 C 85 % 89 % 1027,6 hPa 0,0 l/m 0,0 km/h (0 Bft) S-SW 202 0 min 2,0 C 4,1 C 0,0 km/h (0 Bft)
23.03.2021 21:35 4,3 C 6,0 C 3,7 C 4,2 C 4,1 C 0,0 C 85 % 89 % 1027,6 hPa 0,0 l/m 0,0 km/h (0 Bft) S-SW 202 0 min 2,0 C 4,1 C 0,0 km/h (0 Bft)
23.03.2021 21:40 4,3 C 6,0 C 3,6 C 4,2 C 4,0 C 0,0 C 85 % 89 % 1027,6 hPa 0,0 l/m 0,0 km/h (0 Bft) S-SW 202 0 min 2,0 C 4,0 C 0,0 km/h (0 Bft)
23.03.2021 21:45 4,1 C 5,9 C 3,6 C 4,1 C 4,1 C 0,0 C 85 % 89 % 1027,6 hPa 0,0 l/m 0,0 km/h (0 Bft) S-SW 202 0 min 1,8 C 4,1 C 0,0 km/h (0 Bft)
23.03.2021 21:50 4,1 C 5,9 C 3,6 C 4,1 C 4,1 C 0,0 C 85 % 89 % 1027,4 hPa 0,0 l/m 0,0 km/h (0 Bft) S-SW 202 0 min 1,8 C 4,1 C 0,0 km/h (0 Bft)
23.03.2021 21:55 4,2 C 5,9 C 3,6 C 4,1 C 4,0 C 0,0 C 86 % 89 % 1027,4 hPa 0,0 l/m 0,0 km/h (0 Bft) S-SW 202 0 min 2,1 C 4,0 C 0,0 km/h (0 Bft)
23.03.2021 22:00 4,1 C 6,0 C 3,6 C 4,1 C 4,1 C 0,0 C 85 % 89 % 1027,4 hPa 0,0 l/m 0,0 km/h (0 Bft) S-SW 202 0 min 1,8 C 4,1 C 0,0 km/h (0 Bft)
23.03.2021 22:05 4,1 C 6,0 C 3,6 C 4,1 C 4,0 C 0,0 C 85 % 89 % 1027,4 hPa 0,0 l/m 0,0 km/h (0 Bft) S-SW 202 0 min 1,8 C 4,0 C 0,0 km/h (0 Bft)
23.03.2021 22:10 4,1 C 6,0 C 3,6 C 4,1 C 4,0 C 0,0 C 85 % 89 % 1027,2 hPa 0,0 l/m 0,0 km/h (0 Bft) S-SW 202 0 min 1,8 C 4,0 C 0,0 km/h (0 Bft)
23.03.2021 22:15 4,1 C 6,0 C 3,6 C 4,0 C 3,9 C 0,0 C 85 % 89 % 1027,2 hPa 0,0 l/m 0,0 km/h (0 Bft) S-SW 202 0 min 1,8 C 3,9 C 0,0 km/h (0 Bft)
23.03.2021 22:20 4,0 C 6,0 C 3,6 C 4,0 C 3,9 C 0,0 C 85 % 89 % 1027,2 hPa 0,0 l/m 0,0 km/h (0 Bft) S-SW 202 0 min 1,7 C 3,9 C 0,0 km/h (0 Bft)
23.03.2021 22:25 4,0 C 6,0 C 3,5 C 3,9 C 3,8 C 0,0 C 85 % 90 % 1027,2 hPa 0,0 l/m 0,0 km/h (0 Bft) S-SW 202 0 min 1,7 C 3,8 C 0,0 km/h (0 Bft)
23.03.2021 22:30 4,0 C 6,0 C 3,5 C 3,9 C 3,8 C 0,0 C 85 % 89 % 1027,4 hPa 0,0 l/m 0,0 km/h (0 Bft) S-SW 202 0 min 1,7 C 3,8 C 0,0 km/h (0 Bft)
23.03.2021 22:35 4,0 C 6,0 C 3,5 C 3,9 C 3,7 C 0,0 C 85 % 90 % 1027,4 hPa 0,0 l/m 0,0 km/h (0 Bft) S-SW 202 0 min 1,7 C 3,7 C 0,0 km/h (0 Bft)
23.03.2021 22:40 4,1 C 6,0 C 3,5 C 4,0 C 3,7 C 0,0 C 85 % 90 % 1027,4 hPa 0,0 l/m 0,0 km/h (0 Bft) S-SW 202 0 min 1,8 C 3,7 C 0,0 km/h (0 Bft)
23.03.2021 22:45 4,0 C 6,0 C 3,5 C 3,9 C 3,7 C 0,0 C 86 % 90 % 1027,4 hPa 0,0 l/m 0,0 km/h (0 Bft) S-SW 202 0 min 1,9 C 3,7 C 0,0 km/h (0 Bft)
23.03.2021 22:50 4,0 C 6,0 C 3,4 C 3,9 C 3,7 C 0,0 C 86 % 90 % 1027,3 hPa 0,0 l/m 0,0 km/h (0 Bft) S-SW 202 0 min 1,9 C 3,7 C 0,0 km/h (0 Bft)
23.03.2021 22:55 4,0 C 6,0 C 3,4 C 3,9 C 3,7 C 0,0 C 86 % 90 % 1027,3 hPa 0,0 l/m 0,0 km/h (0 Bft) S-SW 202 0 min 1,9 C 3,7 C 0,0 km/h (0 Bft)
23.03.2021 23:00 4,0 C 6,0 C 3,4 C 3,9 C 3,6 C 0,0 C 86 % 90 % 1027,3 hPa 0,0 l/m 0,0 km/h (0 Bft) S-SW 202 0 min 1,9 C 3,6 C 0,0 km/h (0 Bft)
23.03.2021 23:05 3,9 C 6,0 C 3,3 C 3,8 C 3,6 C 0,0 C 86 % 89 % 1027,3 hPa 0,0 l/m 0,0 km/h (0 Bft) S-SW 202 0 min 1,8 C 3,6 C 0,0 km/h (0 Bft)
23.03.2021 23:10 3,9 C 6,0 C 3,3 C 3,8 C 3,6 C 0,0 C 86 % 89 % 1027,3 hPa 0,0 l/m 0,0 km/h (0 Bft) S-SW 202 0 min 1,8 C 3,6 C 0,0 km/h (0 Bft)
23.03.2021 23:15 3,9 C 6,0 C 3,3 C 3,8 C 3,7 C 0,0 C 86 % 90 % 1027,3 hPa 0,0 l/m 0,0 km/h (0 Bft) S-SW 202 0 min 1,8 C 3,7 C 0,0 km/h (0 Bft)
23.03.2021 23:20 3,9 C 6,0 C 3,4 C 3,9 C 3,8 C 0,0 C 86 % 90 % 1027,3 hPa 0,0 l/m 0,0 km/h (0 Bft) S-SW 202 0 min 1,8 C 3,8 C 0,0 km/h (0 Bft)
23.03.2021 23:25 3,9 C 6,0 C 3,3 C 3,9 C 3,8 C 0,0 C 86 % 90 % 1027,3 hPa 0,0 l/m 0,0 km/h (0 Bft) S-SW 202 0 min 1,8 C 3,8 C 0,0 km/h (0 Bft)
23.03.2021 23:30 3,9 C 6,0 C 3,4 C 3,9 C 3,8 C 0,0 C 86 % 90 % 1026,8 hPa 0,0 l/m 0,0 km/h (0 Bft) S-SW 202 0 min 1,8 C 3,8 C 0,0 km/h (0 Bft)
23.03.2021 23:35 3,9 C 6,0 C 3,3 C 3,9 C 3,8 C 0,0 C 86 % 90 % 1026,8 hPa 0,0 l/m 0,0 km/h (0 Bft) S-SW 202 0 min 1,8 C 3,8 C 0,0 km/h (0 Bft)
23.03.2021 23:40 3,8 C 6,0 C 3,4 C 3,8 C 3,8 C 0,0 C 86 % 90 % 1026,8 hPa 0,0 l/m 0,0 km/h (0 Bft) S-SW 202 0 min 1,7 C 3,8 C 0,0 km/h (0 Bft)
23.03.2021 23:45 3,8 C 6,0 C 3,3 C 3,8 C 3,8 C 0,0 C 86 % 90 % 1026,8 hPa 0,0 l/m 0,0 km/h (0 Bft) S-SW 202 0 min 1,7 C 3,8 C 0,0 km/h (0 Bft)
23.03.2021 23:50 3,8 C 5,9 C 3,3 C 3,8 C 3,8 C 0,0 C 86 % 90 % 1027,1 hPa 0,0 l/m 0,0 km/h (0 Bft) S-SW 202 0 min 1,7 C 3,8 C 0,0 km/h (0 Bft)
23.03.2021 23:55 3,9 C 6,0 C 3,3 C 3,9 C 3,8 C 0,0 C 86 % 90 % 1027,1 hPa 0,0 l/m 0,0 km/h (0 Bft) S-SW 202 0 min 1,8 C 3,8 C 0,0 km/h (0 Bft)
_ Min-Zeit 00:00 00:00 00:00 00:00 00:00 00:35 13:50 12:55 00:50 - 00:00 - - - 00:00 00:00 00:00
Minimum _ 1,9 C 5,2 C 1,6 C 2,2 C 2,2 C 0,0 C 77 % 78 % 1024,9 hPa - 0,0 km/h (0 Bft) - - - -0,3 C 2,2 C 0,0 km/h (0 Bft)
_ Max-Zeit 12:55 21:00 12:50 12:20 12:20 12:15 08:40 06:50 19:50 00:00 13:15 - - 00:00 12:30 12:20 13:30
Maximum _ 6,1 C 6,0 C 7,1 C 8,4 C 8,4 C 2,8 C 88 % 91 % 1027,6 hPa 0,0 l/m 4,2 km/h
SW (1 Bft)
- - 0 min 2,9 C 8,4 C 13,2 km/h
W-SW (3 Bft)
Durchschnitt _ 4,4 C 5,5 C 4,2 C 4,8 C 4,7 C 0,5 C 83 % 86 % 1026,3 hPa #0,0 l/m 0,8 km/h (0 Bft) SW - #0 min. 1,8 C 4,7 C 1,3 km/h (1 Bft)
2021 www.wetterstation-wechselburg.de